Latest Coastal Weather Observations for Bundaberg

IDQ60701

Issued at 12:13 pm EST Monday 27 June 2016 (issued every 10 minutes, with the page automatically refreshed every 10 minutes)

About coastal observations | Map of coastal stations | Coastal observations for QLD | Marine services | Other Formats
Station Details ID: 039128 Name: BUNDABERG AERO Lat: -24.91 Lon: 152.32 Height: 30.82 m
Data from the previous 72 hours. | See also: Recent months at Bundaberg
Date/Time
EST
Temp
°C
Wind Pressure Rain since
9am
mm
Weather Cloud Vis
km
Sea
Height
m
Swell
Dir  Spd
kts
Gust
kts
hPa Trend Height
m
Period
s
Dir
27/12:00pm 16.5 WSW 4 6 1016.0 - 1.0 Showers Cloudy 10 - - - -
27/11:30am 16.8 W 6 7 1016.5 - 0.2 - Partly cloudy 10 - - - -
27/11:00am 17.1 WSW 5 8 1016.3 - 0.0 - Partly cloudy 10 - - - -
27/10:30am 18.0 WSW 7 9 1017.2 - 0.0 - Partly cloudy 10 - - - -
27/10:00am 17.8 WSW 5 6 1017.1 - 0.0 - Cloudy 10 - - - -
27/09:30am 17.4 SW 4 5 1017.2 - 0.0 - Partly cloudy 10 - - - -
27/09:00am 16.6 SW 4 5 1017.4 - 0.0 - Cloudy 10 - - - -
27/08:30am 16.2 SW 3 4 1017.2 - 0.0 - Cloudy 10 - - - -
27/08:00am 15.7 SW 6 8 1017.2 - 0.0 - Cloudy 10 - - - -
27/07:30am 15.2 SW 3 5 1016.7 - 0.0 - Partly cloudy 10 - - - -
27/07:00am 14.9 CALM 0 0 1016.3 - 0.0 - Cloudy 10 - - - -
27/06:30am 14.7 CALM 0 0 1016.4 - 0.0 - Cloudy 10 - - - -
27/06:00am 14.8 CALM 0 0 1016.3 - 0.0 - Cloudy 10 - - - -
27/05:30am 14.8 CALM 0 0 1016.1 - 0.0 - Cloudy 10 - - - -
27/05:00am 14.9 CALM 0 0 1015.8 - 0.0 - Partly cloudy 10 - - - -
27/04:30am 14.7 WSW 3 4 1015.9 - 0.0 - Partly cloudy 10 - - - -
27/04:00am 14.6 WSW 2 4 1015.8 - 0.0 - Cloudy 10 - - - -
27/03:30am 14.4 WSW 5 6 1015.8 - 0.0 - Cloudy 10 - - - -
27/03:00am 14.4 W 4 5 1015.9 - 0.0 - Cloudy 10 - - - -
27/02:30am 14.3 WSW 4 5 1016.0 - 0.0 - Cloudy 10 - - - -
27/02:00am 14.2 SW 4 6 1015.9 - 0.0 - Partly cloudy 10 - - - -
27/01:30am 13.6 WSW 1 3 1016.1 - 0.0 - Partly cloudy 10 - - - -
27/01:00am 13.6 CALM 0 0 1016.4 - 0.0 - Cloudy 10 - - - -
27/12:30am 14.3 CALM 0 0 1016.4 - 0.0 - Partly cloudy 10 - - - -
27/12:00am 14.3 W 1 3 1016.6 - 0.0 - Cloudy 10 - - - -
 
Date/Time
EST
Temp
°C
Wind Pressure Rain since
9am
mm
Weather Cloud Vis
km
Sea
Height
m
Swell
Dir  Spd
kts
Gust
kts
hPa Trend Height
m
Period
s
Dir
26/11:30pm 14.4 W 4 5 1017.3 - 0.0 - Cloudy 10 - - - -
26/11:00pm 15.0 CALM 0 0 1017.2 - 0.0 - Cloudy 10 - - - -
26/10:30pm 14.8 E 2 4 1017.4 - 0.0 - Cloudy 10 - - - -
26/10:00pm 14.9 CALM 0 0 1017.6 - 0.0 - Cloudy 10 - - - -
26/09:30pm 14.7 CALM 0 0 1018.1 - 0.0 - Cloudy 10 - - - -
26/09:00pm 14.7 CALM 0 0 1018.4 - 0.0 - Cloudy 10 - - - -
26/08:30pm 14.8 CALM 0 0 1018.7 - 0.0 - Cloudy 10 - - - -
26/08:00pm 14.6 CALM 0 0 1018.6 - 0.0 - - 10 - - - -
26/07:30pm 14.4 CALM 0 0 1018.3 - 0.0 - - 10 - - - -
26/07:00pm 14.7 S 3 4 1018.3 - 0.0 - Cloudy 10 - - - -
26/06:30pm 14.8 SE 3 4 1017.8 - 0.0 - Partly cloudy 10 - - - -
26/06:00pm 15.1 ESE 2 3 1017.7 - 0.0 - - 10 - - - -
26/05:30pm 15.9 E 5 5 1017.3 - 0.0 - - 10 - - - -
26/05:00pm 17.7 NE 7 8 1017.0 - 0.0 - - 10 - - - -
26/04:30pm 18.8 NE 9 11 1016.4 - 0.0 - - 10 - - - -
26/04:00pm 19.3 NE 8 11 1016.5 - 0.0 - Partly cloudy 10 - - - -
26/03:30pm 19.9 NE 7 12 1016.7 - 0.0 - Partly cloudy 10 - - - -
26/03:00pm 20.1 E 7 12 1016.7 - 0.0 - Mostly clear 10 - - - -
26/02:30pm 19.9 NE 7 11 1016.7 - 0.0 - Partly cloudy 10 - - - -
26/02:00pm 20.2 NE 8 12 1017.0 - 0.0 - - 10 - - - -
26/01:30pm 20.1 ENE 7 9 1017.3 - 0.0 - - 10 - - - -
26/01:00pm 20.0 NE 5 9 1018.0 - 0.0 - - 10 - - - -
26/12:30pm 19.5 E 6 10 1018.8 - 0.0 - - 10 - - - -
26/12:00pm 18.9 ESE 4 6 1019.3 - 0.0 - - 10 - - - -
26/11:30am 18.6 SE 3 7 1019.7 - 0.0 - - 10 - - - -
26/11:00am 17.7 S 6 7 1020.5 - 0.0 - - 10 - - - -
26/10:30am 16.4 S 6 9 1020.6 - 0.0 - - 10 - - - -
26/10:00am 15.0 SSW 6 8 1020.9 - 0.0 - - 10 - - - -
26/09:30am 13.9 SSW 6 8 1021.2 - 0.0 - - 10 - - - -
26/09:00am 12.4 S 5 7 1021.0 - 0.0 - - 10 - - - -
26/08:30am 10.3 SSW 5 8 1020.9 - 0.0 - - 10 - - - -
26/08:00am 8.8 SW 7 8 1021.3 - 0.0 - - 10 - - - -
26/07:30am 7.5 SW 8 11 1021.2 - 0.0 - - 10 - - - -
26/07:00am 6.3 SW 5 8 1020.5 - 0.0 - - 10 - - - -
26/06:30am 6.0 SW 6 7 1020.2 - 0.0 - - 10 - - - -
26/06:00am 6.1 SW 6 8 1020.2 - 0.0 - - 10 - - - -
26/05:30am 6.3 SW 7 10 1020.1 - 0.0 - - 10 - - - -
26/05:00am 6.3 SW 6 7 1019.5 - 0.0 - - 10 - - - -
26/04:30am 6.6 SW 7 9 1019.0 - 0.0 - - 10 - - - -
26/04:00am 6.0 SW 5 7 1018.5 - 0.0 - - 10 - - - -
26/03:30am 6.4 SSW 6 7 1018.5 - 0.0 - - 10 - - - -
26/03:00am 7.2 SW 7 9 1019.1 - 0.0 - - 10 - - - -
26/02:30am 7.4 SW 7 10 1019.0 - 0.0 - - 10 - - - -
26/02:00am 7.2 SW 7 8 1019.1 - 0.0 - - 10 - - - -
26/01:30am 7.5 SW 4 6 1019.0 - 0.0 - - 10 - - - -
26/01:00am 6.9 SW 4 5 1019.3 - 0.0 - - 10 - - - -
26/12:30am 7.6 WSW 5 7 1019.5 - 0.0 - - 10 - - - -
26/12:00am 8.4 SW 6 7 1019.6 - 0.0 - - 10 - - - -
 
Date/Time
EST
Temp
°C
Wind Pressure Rain since
9am
mm
Weather Cloud Vis
km
Sea
Height
m
Swell
Dir  Spd
kts
Gust
kts
hPa Trend Height
m
Period
s
Dir
25/11:30pm 8.9 SW 7 9 1019.8 - 0.0 - - 10 - - - -
25/11:00pm 8.7 SW 5 6 1020.2 - 0.0 - - 10 - - - -
25/10:30pm 7.6 SW 4 6 1020.2 - 0.0 - - 10 - - - -
25/10:00pm 7.6 SE 2 4 1020.3 - 0.0 - - 10 - - - -
25/09:30pm 7.4 SSE 4 6 1019.9 - 0.0 - - 10 - - - -
25/09:00pm 8.1 S 5 6 1019.8 - 0.0 - - 10 - - - -
25/08:30pm 9.4 S 4 5 1019.8 - 0.0 - - 10 - - - -
25/08:00pm 12.0 SSW 6 8 1019.5 - 0.0 - - 10 - - - -
25/07:30pm 12.4 SW 6 8 1019.2 - 0.0 - - 10 - - - -
25/07:00pm 12.6 SW 5 7 1019.1 - 0.0 - - 10 - - - -
25/06:30pm 12.5 SW 4 5 1018.6 - 0.0 - - 10 - - - -
25/06:00pm 12.0 CALM 0 4 1018.1 - 0.0 - - 10 - - - -
25/05:30pm 13.9 WSW 4 5 1018.1 - 0.0 - - 10 - - - -
25/05:00pm 16.6 SW 4 5 1017.9 - 0.0 - - 10 - - - -
25/04:30pm 17.6 SW 5 8 1017.6 - 0.0 - - 10 - - - -
25/04:00pm 17.9 SSW 8 11 1017.3 - 0.0 - - 10 - - - -
25/03:30pm 18.4 SSW 7 11 1017.1 - 0.0 - - 10 - - - -
25/03:00pm 18.6 SSW 8 12 1017.0 - 0.0 - - 10 - - - -
25/02:30pm 18.2 SW 9 13 1017.1 - 0.0 - - 10 - - - -
25/02:00pm 18.4 S 8 13 1017.2 - 0.0 - - 10 - - - -
25/01:30pm 17.7 SSW 10 16 1017.6 - 0.0 - - 10 - - - -
25/01:00pm 17.1 SSW 10 15 1017.9 - 0.0 - - 10 - - - -
25/12:30pm 16.6 SSW 9 16 1018.4 - 0.0 - - 10 - - - -
25/12:00pm 16.9 SSW 9 15 1018.8 - 0.0 - - 10 - - - -
25/11:30am 15.5 SW 10 14 1019.2 - 0.0 - - 10 - - - -
25/11:00am 15.0 SSW 9 14 1019.8 - 0.0 - - 10 - - - -
25/10:30am 15.1 SW 11 15 1020.0 - 0.0 - - 10 - - - -
25/10:00am 14.2 SSW 11 14 1020.2 - 0.0 - - 10 - - - -
25/09:30am 13.9 SW 12 16 1020.2 - 0.0 - - 10 - - - -
25/09:00am 13.7 SSW 10 16 1020.2 - 0.0 - - 10 - - - -
25/08:30am 13.0 SSW 10 15 1020.0 - 0.0 - - 10 - - - -
25/08:00am 12.0 SW 9 14 1019.9 - 0.0 - - 10 - - - -
25/07:30am 11.4 SW 7 10 1019.5 - 0.0 - - 10 - - - -
25/07:00am 10.3 SW 5 7 1019.0 - 0.0 - - 10 - - - -
25/06:30am 10.3 SW 4 6 1018.8 - 0.0 - - 10 - - - -
25/06:00am 11.4 SW 6 10 1018.5 - 0.0 - - 10 - - - -
25/05:30am 11.9 SW 8 15 1017.9 - 0.0 - - 10 - - - -
25/05:00am 12.6 SW 10 17 1017.5 - 0.0 - - 10 - - - -
25/04:30am 13.0 SW 12 19 1016.8 - 0.0 - - 10 - - - -
25/04:00am 13.6 SW 15 21 1016.3 - 0.0 - - 10 - - - -
25/03:30am 14.0 SW 13 20 1016.3 - 0.0 - - 10 - - - -
25/03:00am 14.3 SW 13 19 1016.2 - 0.0 - - 10 - - - -
25/02:30am 14.3 SW 9 15 1016.4 - 0.0 - - 10 - - - -
25/02:00am 14.7 SW 8 13 1016.5 - 0.0 - - 10 - - - -
25/01:30am 15.0 SW 9 14 1016.4 - 0.0 - - 10 - - - -
25/01:00am 15.6 SW 8 12 1016.7 - 0.0 - - 10 - - - -
25/12:30am 16.0 SW 13 20 1016.6 - 0.0 - - 10 - - - -
25/12:00am 16.3 SW 10 13 1016.6 - 0.0 - - 10 - - - -
 
Date/Time
EST
Temp
°C
Wind Pressure Rain since
9am
mm
Weather Cloud Vis
km
Sea
Height
m
Swell
Dir  Spd
kts
Gust
kts
hPa Trend Height
m
Period
s
Dir
24/11:30pm 16.5 SW 9 13 1016.3 - 0.0 - - 10 - - - -
24/11:00pm 17.5 SSW 9 15 1016.0 - 0.0 - - 10 - - - -
24/10:30pm 18.0 SW 9 13 1015.7 - 0.0 - - 10 - - - -
24/10:00pm 18.2 WSW 7 9 1015.4 - 0.0 - - 10 - - - -
24/09:30pm 19.0 WSW 7 9 1015.1 - 0.0 - - 10 - - - -
24/09:00pm 18.5 WSW 6 9 1014.9 - 0.0 - - 10 - - - -
24/08:30pm 16.4 WNW 4 6 1014.6 - 0.0 - - 10 - - - -
24/08:00pm 16.4 NNW 5 6 1014.3 - 0.0 - - 10 - - - -
24/07:30pm 16.9 N 3 5 1014.0 - 0.0 - - 10 - - - -
24/07:00pm 17.2 NNW 4 5 1013.8 - 0.0 - - 10 - - - -
24/06:30pm 17.0 WNW 6 6 1013.5 - 0.0 - - 10 - - - -
24/06:00pm 18.7 CALM 0 0 1013.0 - 0.0 - - 10 - - - -
24/05:30pm 19.6 CALM 0 0 1012.5 - 0.0 - - 10 - - - -
24/05:00pm 22.0 WNW 1 3 1012.0 - 0.0 - - 10 - - - -
24/04:30pm 23.9 WNW 3 5 1011.9 - 0.0 - - 10 - - - -
24/04:00pm 23.2 W 4 6 1011.7 - 0.0 - - 10 - - - -
24/03:30pm 23.5 WSW 8 10 1011.5 - 0.0 - - 10 - - - -
24/03:00pm 23.3 WSW 7 11 1011.4 - 0.0 - - 10 - - - -
24/02:30pm 23.4 SW 11 15 1011.7 - 0.0 - - 10 - - - -
24/02:00pm 22.9 SW 9 12 1012.1 - 0.0 - Partly cloudy 10 - - - -
24/01:30pm 23.0 SW 7 12 1012.4 - 0.0 - Partly cloudy 10 - - - -
24/01:00pm 22.5 SW 10 15 1012.9 - 0.0 - Cloudy 10 - - - -
24/12:30pm 22.3 SW 9 12 1013.2 - 0.0 - Partly cloudy 10 - - - -

Other Formats:

Comma delimited format used in spreadsheet applications
http://www.bom.gov.au/fwo/IDQ60701/IDQ60701.94387.axf

JavaScript Object Notation format (JSON) in row-major order
http://www.bom.gov.au/fwo/IDQ60701/IDQ60701.94387.json